Time;durP1;ratioP1;P1;durP2;ratioP2;P2;SDS_P1;SDS_P2;PMS_P1;PMS_P2;Temp;Humidity;BMP_temperature;BMP_pressure;BME280_temperature;BME280_humidity;BME280_pressure;Samples;Min_cycle;Max_cycle;Signal;HPM_P1;HPM_P2
2022/12/06 00:00:19;;;;;;;2.75;1.23;;;8.10;99.90;;;;;;9676351;30;20031;-61
2022/12/06 00:05:20;;;;;;;2.13;1.27;;;8.10;99.90;;;;;;9675716;30;20030;-61
2022/12/06 00:10:21;;;;;;;1.83;1.25;;;8.10;99.90;;;;;;9676176;30;20048;-61
2022/12/06 00:15:22;;;;;;;3.10;1.45;;;8.10;99.90;;;;;;9679991;30;20050;-61
2022/12/06 00:20:23;;;;;;;3.72;1.33;;;8.00;99.90;;;;;;9681328;30;20652;-61
2022/12/06 00:25:24;;;;;;;1.45;1.10;;;8.10;99.90;;;;;;9682200;30;20034;-62
2022/12/06 00:30:25;;;;;;;2.30;1.30;;;8.10;99.90;;;;;;9682405;30;20026;-61
2022/12/06 00:35:26;;;;;;;1.63;1.00;;;8.00;99.90;;;;;;9681835;30;20042;-61
2022/12/06 00:40:27;;;;;;;3.83;1.77;;;8.10;99.90;;;;;;9681700;30;20508;-61
2022/12/06 00:45:28;;;;;;;2.17;1.10;;;8.10;99.90;;;;;;9682534;30;20065;-61
2022/12/06 00:50:28;;;;;;;3.20;1.20;;;8.10;99.90;;;;;;9681426;30;20691;-62
2022/12/06 00:55:29;;;;;;;3.28;1.15;;;8.10;99.90;;;;;;9680606;30;20338;-61
2022/12/06 01:00:30;;;;;;;1.98;1.40;;;8.10;99.90;;;;;;9680832;30;20520;-61
2022/12/06 01:05:32;;;;;;;1.35;1.02;;;8.10;99.90;;;;;;9680715;30;20048;-61
2022/12/06 01:10:33;;;;;;;3.97;1.50;;;8.10;99.90;;;;;;9680651;30;20199;-61
2022/12/06 01:15:35;;;;;;;3.25;1.30;;;8.10;99.90;;;;;;9679891;30;20102;-61
2022/12/06 01:20:36;;;;;;;1.70;1.08;;;8.10;99.90;;;;;;9680233;30;20046;-61
2022/12/06 01:25:36;;;;;;;1.80;1.05;;;8.10;99.90;;;;;;9679584;30;20035;-61
2022/12/06 01:30:39;;;;;;;2.08;1.33;;;8.10;99.90;;;;;;9680703;30;20098;-61
2022/12/06 01:35:40;;;;;;;2.50;1.40;;;8.30;99.90;;;;;;9679640;30;20034;-60
2022/12/06 01:40:46;;;;;;;3.13;1.27;;;8.10;99.90;;;;;;9679109;30;20042;-61
2022/12/06 01:45:47;;;;;;;2.25;1.10;;;8.10;99.90;;;;;;9680203;30;20038;-61
2022/12/06 01:50:48;;;;;;;2.78;1.33;;;8.10;99.90;;;;;;9679266;30;20034;-61
2022/12/06 01:55:49;;;;;;;3.80;1.40;;;8.10;99.90;;;;;;9678501;30;20104;-62
2022/12/06 02:00:49;;;;;;;2.28;1.23;;;8.10;99.90;;;;;;9679196;30;20038;-61
2022/12/06 02:05:50;;;;;;;3.78;1.10;;;8.10;99.90;;;;;;9678438;30;20037;-61
2022/12/06 02:10:52;;;;;;;2.28;1.00;;;8.60;99.90;;;;;;9678300;30;20381;-61
2022/12/06 02:16:24;;;;;;;2.63;1.30;;;8.10;99.90;;;;;;9678422;30;20214;-62
2022/12/06 02:21:48;;;;;;;3.85;1.45;;;8.10;99.90;;;;;;9640994;30;20047;-62
2022/12/06 02:27:00;;;;;;;3.50;1.80;;;8.10;99.90;;;;;;9642431;30;20050;-61
2022/12/06 02:32:19;;;;;;;1.70;1.02;;;8.10;99.90;;;;;;9645353;30;20385;-61
2022/12/06 02:37:32;;;;;;;3.28;1.50;;;8.10;99.90;;;;;;9640985;30;20042;-61
2022/12/06 02:42:53;;;;;;;5.80;2.10;;;8.20;99.90;;;;;;9641982;30;20397;-61
2022/12/06 02:47:56;;;;;;;3.25;1.25;;;8.00;99.90;;;;;;9644367;30;20019;-61
2022/12/06 02:53:01;;;;;;;1.90;1.10;;;8.00;99.90;;;;;;9641859;30;20065;-61
2022/12/06 02:58:02;;;;;;;3.92;1.77;;;8.00;99.90;;;;;;9640951;30;20026;-61
2022/12/06 03:03:18;;;;;;;2.97;1.50;;;8.00;99.90;;;;;;9641913;30;20062;-61
2022/12/06 03:08:50;;;;;;;2.75;1.40;;;8.00;99.90;;;;;;9641504;30;20109;-61
2022/12/06 03:14:03;;;;;;;1.88;1.25;;;8.00;99.90;;;;;;9640913;30;20058;-61
2022/12/06 03:19:19;;;;;;;2.65;1.17;;;8.00;99.90;;;;;;9659730;30;20046;-61
2022/12/06 03:24:21;;;;;;;4.10;1.10;;;8.00;99.90;;;;;;9675096;30;20036;-61
2022/12/06 03:29:25;;;;;;;3.58;1.17;;;8.00;99.90;;;;;;9674743;30;20057;-61
2022/12/06 03:34:31;;;;;;;2.10;0.90;;;8.00;99.90;;;;;;9676111;30;20057;-61
2022/12/06 03:39:59;;;;;;;1.98;1.10;;;8.00;99.90;;;;;;9674261;30;20034;-61
2022/12/06 03:45:00;;;;;;;2.10;1.00;;;8.00;99.90;;;;;;9674461;30;20058;-61
2022/12/06 03:50:09;;;;;;;1.95;1.23;;;8.00;99.90;;;;;;9679867;30;20129;-62
2022/12/06 03:55:10;;;;;;;1.73;1.00;;;8.00;99.90;;;;;;9675077;30;20046;-61
2022/12/06 04:00:15;;;;;;;1.85;1.02;;;8.00;99.90;;;;;;9682437;30;20034;-61
2022/12/06 04:05:16;;;;;;;2.53;1.10;;;8.00;99.90;;;;;;9680597;30;20046;-61
2022/12/06 04:10:16;;;;;;;2.22;1.10;;;8.00;99.90;;;;;;9681519;30;20120;-62
2022/12/06 04:15:19;;;;;;;2.58;1.10;;;8.00;99.90;;;;;;9678573;30;20050;-61
2022/12/06 04:20:20;;;;;;;1.50;1.00;;;8.00;99.90;;;;;;9682074;30;20049;-62
2022/12/06 04:25:21;;;;;;;1.90;1.02;;;8.00;99.90;;;;;;9681221;30;20056;-61
2022/12/06 04:41:00;;;;;;;2.58;1.00;;;8.00;99.90;;;;;;9678516;30;20038;-61
2022/12/06 04:46:01;;;;;;;1.40;0.85;;;8.00;99.90;;;;;;9681947;30;20026;-61
2022/12/06 04:51:02;;;;;;;2.83;1.67;;;8.00;99.90;;;;;;9679550;30;20092;-61
2022/12/06 04:56:02;;;;;;;1.85;0.80;;;8.00;99.90;;;;;;9677647;30;20375;-61
2022/12/06 05:01:03;;;;;;;1.83;0.98;;;8.00;99.90;;;;;;9678918;30;20046;-61
2022/12/06 05:06:05;;;;;;;2.40;1.10;;;8.00;99.90;;;;;;9665458;30;20493;-61
2022/12/06 05:11:06;;;;;;;1.67;0.90;;;8.00;99.90;;;;;;9679679;30;20044;-61
2022/12/06 05:16:07;;;;;;;1.98;0.82;;;8.00;99.90;;;;;;9679759;30;20044;-61
2022/12/06 05:21:15;;;;;;;1.73;0.90;;;8.00;99.90;;;;;;9678418;30;20091;-61
2022/12/06 05:26:17;;;;;;;1.58;0.85;;;7.90;99.90;;;;;;9678557;30;20037;-61
2022/12/06 05:31:19;;;;;;;2.20;1.17;;;7.90;99.90;;;;;;9678259;30;20045;-61
2022/12/06 05:36:24;;;;;;;0.82;0.70;;;7.90;99.90;;;;;;9677011;30;20050;-61
2022/12/06 05:41:25;;;;;;;1.13;0.70;;;7.90;99.90;;;;;;9678547;30;20042;-61
2022/12/06 05:46:25;;;;;;;1.25;0.70;;;7.90;99.90;;;;;;9679434;30;20484;-62
2022/12/06 05:51:26;;;;;;;1.73;0.90;;;7.90;99.90;;;;;;9679287;30;20041;-61
2022/12/06 05:56:27;;;;;;;1.65;1.00;;;8.10;99.90;;;;;;9676942;30;20065;-61
2022/12/06 06:01:28;;;;;;;2.53;0.90;;;7.90;99.90;;;;;;9678550;30;20042;-61
2022/12/06 06:06:28;;;;;;;1.77;0.85;;;7.90;99.90;;;;;;9678009;30;20046;-61
2022/12/06 06:11:29;;;;;;;2.20;0.80;;;7.90;99.90;;;;;;9678105;30;20042;-61
2022/12/06 06:16:31;;;;;;;2.30;1.00;;;7.90;99.90;;;;;;9678356;30;20042;-61
2022/12/06 06:21:32;;;;;;;1.90;0.85;;;7.90;99.90;;;;;;9675867;30;20619;-61
2022/12/06 06:26:33;;;;;;;1.90;1.00;;;7.80;99.90;;;;;;9675494;30;20053;-61
2022/12/06 06:31:34;;;;;;;1.70;1.08;;;7.90;99.90;;;;;;9677910;30;20312;-61
2022/12/06 06:36:34;;;;;;;1.88;1.00;;;7.90;99.90;;;;;;9674743;30;20042;-61
2022/12/06 06:41:35;;;;;;;1.45;0.85;;;7.90;99.90;;;;;;9675042;30;20052;-61
2022/12/06 06:46:36;;;;;;;1.50;0.80;;;7.80;99.90;;;;;;9675688;30;20386;-62
2022/12/06 06:51:36;;;;;;;3.10;1.10;;;7.90;99.90;;;;;;9672515;30;20038;-62
2022/12/06 06:56:37;;;;;;;1.45;0.98;;;7.90;99.90;;;;;;9673134;30;20524;-60
2022/12/06 07:01:38;;;;;;;1.63;0.80;;;7.80;99.90;;;;;;9666982;30;20037;-61
2022/12/06 07:06:39;;;;;;;2.70;0.98;;;8.00;99.90;;;;;;9674054;30;20034;-61
2022/12/06 07:11:40;;;;;;;1.27;0.80;;;7.80;99.90;;;;;;9675283;30;20042;-61
2022/12/06 07:16:40;;;;;;;2.50;1.05;;;7.80;99.90;;;;;;9675244;30;20046;-61
2022/12/06 07:21:41;;;;;;;2.03;1.15;;;7.80;99.90;;;;;;9675889;30;20042;-61
2022/12/06 07:26:42;;;;;;;2.35;0.85;;;7.80;99.90;;;;;;9682641;30;20132;-69
2022/12/06 07:31:43;;;;;;;2.17;1.42;;;7.80;99.90;;;;;;9682564;30;20100;-62
2022/12/06 07:36:43;;;;;;;2.35;1.35;;;7.80;99.90;;;;;;9679733;30;20497;-61
2022/12/06 07:47:04;;;;;;;3.90;1.20;;;7.70;99.90;;;;;;9670776;30;20114;-61
2022/12/06 07:52:05;;;;;;;2.10;1.38;;;7.70;99.90;;;;;;9660344;30;20868;-61
2022/12/06 07:57:05;;;;;;;1.80;1.23;;;7.70;99.90;;;;;;9585958;30;20282;-60
2022/12/06 08:02:17;;;;;;;2.50;1.65;;;7.70;99.90;;;;;;9583374;30;20030;-60
2022/12/06 08:07:18;;;;;;;3.70;1.60;;;7.70;99.90;;;;;;9603935;30;20417;-61
2022/12/06 08:12:20;;;;;;;3.08;1.55;;;7.70;99.90;;;;;;9600174;30;20046;-62
2022/12/06 08:17:21;;;;;;;2.28;1.55;;;7.70;99.90;;;;;;9605452;30;20065;-61
2022/12/06 08:22:22;;;;;;;2.78;1.40;;;7.70;99.90;;;;;;9577838;30;20100;-61
2022/12/06 08:27:22;;;;;;;2.63;1.40;;;7.80;99.90;;;;;;9579795;30;20034;-62
2022/12/06 08:32:23;;;;;;;4.65;1.55;;;7.70;99.90;;;;;;9589157;30;20194;-61
2022/12/06 08:37:24;;;;;;;2.75;1.58;;;7.70;99.90;;;;;;9593242;30;20077;-61
2022/12/06 08:42:25;;;;;;;1.88;1.45;;;7.70;99.90;;;;;;9591663;30;20502;-61
2022/12/06 08:47:26;;;;;;;2.00;1.33;;;7.70;99.90;;;;;;9607556;30;20474;-62
2022/12/06 08:52:26;;;;;;;2.25;1.27;;;7.70;99.90;;;;;;9598729;30;20104;-62
2022/12/06 08:57:27;;;;;;;3.45;1.98;;;7.80;99.90;;;;;;9598971;30;20042;-62
2022/12/06 09:02:28;;;;;;;2.38;1.67;;;7.80;99.90;;;;;;9601682;30;20244;-62
2022/12/06 09:07:29;;;;;;;5.05;1.63;;;8.20;99.90;;;;;;9602129;30;20033;-62
2022/12/06 09:12:30;;;;;;;4.55;1.77;;;8.50;99.90;;;;;;9599587;30;20049;-62
2022/12/06 09:17:31;;;;;;;3.10;1.75;;;7.90;99.90;;;;;;9585350;30;20064;-61
2022/12/06 09:22:32;;;;;;;3.72;1.65;;;7.90;99.90;;;;;;9595223;30;20034;-61
2022/12/06 09:27:33;;;;;;;4.30;1.48;;;7.90;99.90;;;;;;9576822;30;20591;-62
2022/12/06 09:32:34;;;;;;;2.55;1.70;;;7.90;99.90;;;;;;9579666;30;20045;-62
2022/12/06 09:37:35;;;;;;;3.22;1.77;;;8.00;99.90;;;;;;9599974;30;20810;-61
2022/12/06 09:42:52;;;;;;;3.53;1.48;;;8.00;99.90;;;;;;9591313;30;20326;-62
2022/12/06 09:47:53;;;;;;;3.53;1.58;;;7.90;99.90;;;;;;9593085;30;20486;-61
2022/12/06 09:53:24;;;;;;;3.25;1.55;;;7.90;99.90;;;;;;9590563;30;20064;-61
2022/12/06 09:59:03;;;;;;;2.03;1.10;;;7.40;99.90;;;;;;9593622;30;20041;-62
2022/12/06 10:04:22;;;;;;;2.65;1.30;;;8.00;99.90;;;;;;9587356;30;20049;-62
2022/12/06 10:09:41;;;;;;;3.15;1.50;;;8.00;99.90;;;;;;9593188;30;20034;-62
2022/12/06 10:14:57;;;;;;;1.85;1.10;;;8.00;99.90;;;;;;9592121;30;20434;-62
2022/12/06 10:20:04;;;;;;;4.80;1.25;;;8.00;99.90;;;;;;9589087;30;20055;-62
2022/12/06 10:25:22;;;;;;;4.30;1.45;;;8.00;99.90;;;;;;9585306;30;20835;-61
2022/12/06 10:30:23;;;;;;;3.30;1.50;;;8.00;99.90;;;;;;9589483;30;20306;-61
2022/12/06 10:35:48;;;;;;;2.35;1.55;;;8.00;99.90;;;;;;9598476;30;20877;-61
2022/12/06 10:41:11;;;;;;;3.25;1.60;;;8.00;99.90;;;;;;9595436;30;20095;-62
2022/12/06 10:51:52;;;;;;;8.77;1.40;;;8.10;99.90;;;;;;9602026;30;20647;-62
2022/12/06 10:56:56;;;;;;;2.95;1.20;;;8.40;99.90;;;;;;9594997;30;20034;-61
2022/12/06 11:02:00;;;;;;;3.70;1.40;;;8.20;99.90;;;;;;9592351;30;20215;-61
2022/12/06 11:07:11;;;;;;;4.18;1.48;;;8.20;99.90;;;;;;9592211;30;20034;-61
2022/12/06 11:12:30;;;;;;;2.55;1.30;;;7.70;99.90;;;;;;9589747;30;20129;-62
2022/12/06 11:17:36;;;;;;;4.18;1.17;;;8.20;99.90;;;;;;9599053;30;20046;-61
2022/12/06 11:22:40;;;;;;;2.22;0.90;;;8.20;99.90;;;;;;9597546;30;20041;-61
2022/12/06 11:28:10;;;;;;;2.95;1.35;;;8.20;99.90;;;;;;9604626;30;20267;-61
2022/12/06 11:33:11;;;;;;;3.70;1.05;;;8.20;99.90;;;;;;9592459;30;20069;-60
2022/12/06 11:38:13;;;;;;;3.55;1.20;;;8.20;99.90;;;;;;9599972;30;20124;-61
2022/12/06 11:43:25;;;;;;;2.05;0.95;;;8.30;99.90;;;;;;9604204;30;20477;-61
2022/12/06 11:48:29;;;;;;;2.42;1.42;;;8.20;99.90;;;;;;9604386;30;20057;-61
2022/12/06 11:53:39;;;;;;;2.33;1.13;;;8.30;99.90;;;;;;9596756;30;20076;-61
2022/12/06 11:58:54;;;;;;;1.73;0.70;;;8.30;99.90;;;;;;9599387;30;20168;-61
2022/12/06 12:03:55;;;;;;;3.05;0.85;;;8.30;99.90;;;;;;9598164;30;20523;-61
2022/12/06 12:09:01;;;;;;;2.35;1.23;;;8.30;99.90;;;;;;9604889;30;20041;-62
2022/12/06 12:14:06;;;;;;;2.40;1.20;;;8.30;99.90;;;;;;9608593;30;20423;-61
2022/12/06 12:19:27;;;;;;;2.03;1.25;;;8.30;99.90;;;;;;9606803;30;20065;-62
2022/12/06 12:24:51;;;;;;;3.05;1.10;;;8.30;99.90;;;;;;9567672;30;20073;-61
2022/12/06 12:30:13;;;;;;;2.72;1.00;;;8.30;99.90;;;;;;9585899;30;20215;-61
2022/12/06 12:35:20;;;;;;;1.17;0.80;;;8.30;99.90;;;;;;9598180;30;20057;-61
2022/12/06 12:40:23;;;;;;;1.48;0.82;;;8.30;99.90;;;;;;9604795;30;20045;-62
2022/12/06 12:45:26;;;;;;;3.33;1.05;;;8.30;99.90;;;;;;9604885;30;20065;-62
2022/12/06 12:50:30;;;;;;;2.17;0.90;;;8.30;99.90;;;;;;9606532;30;20041;-63
2022/12/06 12:55:30;;;;;;;2.65;0.95;;;8.30;99.90;;;;;;9590441;30;20524;-61
2022/12/06 13:00:37;;;;;;;1.85;0.93;;;8.50;99.90;;;;;;9605121;30;20044;-61
2022/12/06 13:05:39;;;;;;;1.77;1.08;;;8.40;99.90;;;;;;9605185;30;20353;-60
2022/12/06 13:10:44;;;;;;;2.38;0.98;;;8.40;99.90;;;;;;9601276;30;20164;-61
2022/12/06 13:15:48;;;;;;;3.03;0.82;;;8.40;99.90;;;;;;9602993;30;20860;-61
2022/12/06 13:20:52;;;;;;;1.48;0.70;;;8.00;99.90;;;;;;9601599;30;20807;-61
2022/12/06 13:26:11;;;;;;;2.20;1.10;;;8.40;99.90;;;;;;9602566;30;20508;-62
2022/12/06 13:31:18;;;;;;;1.83;1.10;;;8.40;99.90;;;;;;9602707;30;20052;-61
2022/12/06 13:36:20;;;;;;;1.65;0.95;;;8.40;99.90;;;;;;9602874;30;20049;-61
2022/12/06 13:47:27;;;;;;;1.45;0.75;;;8.40;99.90;;;;;;9604232;30;20046;-62
2022/12/06 13:52:43;;;;;;;2.05;0.98;;;8.40;99.90;;;;;;9602162;30;20167;-62
2022/12/06 13:57:43;;;;;;;1.40;0.77;;;8.40;99.90;;;;;;9601261;30;20576;-62
2022/12/06 14:02:45;;;;;;;1.02;0.70;;;8.40;99.90;;;;;;9599906;30;20034;-61
2022/12/06 14:07:46;;;;;;;1.30;0.75;;;8.40;99.90;;;;;;9593438;30;21046;-61
2022/12/06 14:12:58;;;;;;;1.30;0.80;;;8.40;99.90;;;;;;9596891;30;20058;-60
2022/12/06 14:17:59;;;;;;;2.35;0.77;;;8.40;99.90;;;;;;9590388;30;20061;-62
2022/12/06 14:23:00;;;;;;;1.20;0.63;;;9.20;99.90;;;;;;9592140;30;20084;-62
2022/12/06 14:28:11;;;;;;;1.55;0.63;;;8.40;99.90;;;;;;9606672;30;20044;-62
2022/12/06 14:33:21;;;;;;;5.00;1.00;;;8.50;99.90;;;;;;9599989;30;20141;-62
2022/12/06 14:38:31;;;;;;;3.05;0.88;;;8.40;99.90;;;;;;9592526;30;20068;-60
2022/12/06 14:43:32;;;;;;;1.92;0.88;;;8.40;99.90;;;;;;9584718;30;20042;-62
2022/12/06 14:54:16;;;;;;;3.35;0.80;;;8.40;99.90;;;;;;9535367;30;20583;-62
2022/12/06 14:59:19;;;;;;;1.50;0.80;;;8.50;99.90;;;;;;9589283;30;20216;-61
2022/12/06 15:04:39;;;;;;;1.40;0.68;;;8.40;99.90;;;;;;9594082;30;20164;-62
2022/12/06 15:09:45;;;;;;;2.72;0.73;;;8.40;99.90;;;;;;9593612;30;20559;-61
2022/12/06 15:14:48;;;;;;;1.08;0.63;;;8.40;99.90;;;;;;9596721;30;20046;-61
2022/12/06 15:19:51;;;;;;;1.98;0.75;;;8.40;99.90;;;;;;9590709;30;20578;-61
2022/12/06 15:24:55;;;;;;;1.55;0.85;;;8.40;99.90;;;;;;9586497;30;20038;-63
2022/12/06 15:29:55;;;;;;;1.63;0.95;;;8.40;99.90;;;;;;9588919;30;20123;-61
2022/12/06 15:34:56;;;;;;;2.47;1.20;;;8.40;99.90;;;;;;9595683;30;20138;-61
2022/12/06 15:39:57;;;;;;;2.45;0.75;;;8.40;99.90;;;;;;9601818;30;20044;-61
2022/12/06 15:44:58;;;;;;;1.20;0.60;;;8.40;99.90;;;;;;9588440;30;20500;-61
2022/12/06 15:50:00;;;;;;;0.93;0.60;;;8.30;99.90;;;;;;9592046;30;20663;-61
2022/12/06 15:55:02;;;;;;;1.33;0.65;;;8.40;99.90;;;;;;9604869;30;20164;-61
2022/12/06 16:00:03;;;;;;;0.60;0.57;;;8.40;99.90;;;;;;9642302;30;20034;-62
2022/12/06 16:05:04;;;;;;;3.80;0.85;;;8.30;99.90;;;;;;9666556;30;20124;-62
2022/12/06 16:10:06;;;;;;;1.77;0.90;;;8.30;99.90;;;;;;9680619;30;20476;-62
2022/12/06 16:15:07;;;;;;;1.23;0.73;;;8.30;99.90;;;;;;9672607;30;20262;-66
2022/12/06 16:20:29;;;;;;;2.05;0.80;;;8.30;99.90;;;;;;9674564;30;20057;-67
2022/12/06 16:25:31;;;;;;;3.15;0.73;;;8.30;99.90;;;;;;9672992;30;20690;-66
2022/12/06 16:30:33;;;;;;;1.60;1.08;;;8.30;99.90;;;;;;9672268;30;20107;-62
2022/12/06 16:35:34;;;;;;;1.52;0.80;;;8.30;99.90;;;;;;9677651;30;20080;-67
2022/12/06 16:40:34;;;;;;;3.60;1.00;;;8.30;99.90;;;;;;9677706;30;20038;-62
2022/12/06 16:45:38;;;;;;;3.15;1.27;;;8.30;99.90;;;;;;9676344;30;20454;-66
2022/12/06 16:50:39;;;;;;;3.25;1.55;;;8.30;99.90;;;;;;9673766;30;20117;-66
2022/12/06 16:55:40;;;;;;;6.82;1.58;;;8.20;99.90;;;;;;9672156;30;20068;-63
2022/12/06 17:00:41;;;;;;;2.70;1.55;;;8.30;99.90;;;;;;9677320;30;20527;-60
2022/12/06 17:05:42;;;;;;;5.70;1.23;;;8.20;99.90;;;;;;9679248;30;20135;-62
2022/12/06 17:10:42;;;;;;;2.72;1.38;;;8.20;99.90;;;;;;9679630;30;20041;-61
2022/12/06 17:15:44;;;;;;;4.97;1.27;;;8.20;99.90;;;;;;9678870;30;20146;-62
2022/12/06 17:20:44;;;;;;;3.63;1.52;;;8.30;99.90;;;;;;9677735;30;20087;-61
2022/12/06 17:25:45;;;;;;;6.88;1.92;;;8.20;99.90;;;;;;9678477;30;20133;-62
2022/12/06 17:30:46;;;;;;;2.10;1.40;;;8.20;99.90;;;;;;9660483;30;20057;-62
2022/12/06 17:35:46;;;;;;;2.83;1.35;;;8.20;99.90;;;;;;9676148;30;20046;-61
2022/12/06 17:40:47;;;;;;;3.90;1.90;;;8.20;99.90;;;;;;9673495;30;20026;-62
2022/12/06 17:45:48;;;;;;;2.33;1.52;;;8.30;99.90;;;;;;9671369;30;20034;-62
2022/12/06 17:50:48;;;;;;;4.93;1.70;;;8.30;99.90;;;;;;9660721;30;20049;-61
2022/12/06 17:55:49;;;;;;;3.72;1.50;;;8.30;99.90;;;;;;9675704;30;20046;-62
2022/12/06 18:00:50;;;;;;;3.35;1.80;;;8.40;99.90;;;;;;9675276;30;20034;-62
2022/12/06 18:05:51;;;;;;;2.78;1.40;;;8.40;99.90;;;;;;9671971;30;20053;-61
2022/12/06 18:10:59;;;;;;;3.22;1.70;;;8.40;99.90;;;;;;9673813;30;20535;-62
2022/12/06 18:16:00;;;;;;;3.90;1.70;;;8.30;99.90;;;;;;9674355;30;20497;-61
2022/12/06 18:21:04;;;;;;;3.85;1.60;;;8.30;99.90;;;;;;9672609;30;20059;-62
2022/12/06 18:26:11;;;;;;;4.40;1.77;;;8.30;99.90;;;;;;9675912;30;20404;-61
2022/12/06 18:31:12;;;;;;;4.20;1.92;;;8.40;99.90;;;;;;9671919;30;20060;-61
2022/12/06 18:36:14;;;;;;;7.82;1.95;;;8.40;99.90;;;;;;9669360;30;20433;-63
2022/12/06 18:41:19;;;;;;;3.00;1.92;;;8.30;99.90;;;;;;9670239;30;20048;-60
2022/12/06 18:46:21;;;;;;;3.50;1.90;;;8.30;99.90;;;;;;9673501;30;20823;-61
2022/12/06 18:51:25;;;;;;;3.67;1.95;;;8.30;99.90;;;;;;9670487;30;20031;-61
2022/12/06 18:56:26;;;;;;;4.05;1.90;;;8.30;99.90;;;;;;9664123;30;20041;-64
2022/12/06 19:01:30;;;;;;;5.68;2.28;;;8.30;99.90;;;;;;9670254;30;20030;-62
2022/12/06 19:06:32;;;;;;;2.42;1.60;;;8.30;99.90;;;;;;9671162;30;20053;-61
2022/12/06 19:11:38;;;;;;;4.55;2.05;;;8.30;99.90;;;;;;9669290;30;20038;-61
2022/12/06 19:16:42;;;;;;;4.25;1.63;;;8.30;99.90;;;;;;9671241;30;20046;-61
2022/12/06 19:21:44;;;;;;;2.72;1.60;;;8.20;99.90;;;;;;9669048;30;20046;-61
2022/12/06 19:26:45;;;;;;;2.55;1.70;;;8.30;99.90;;;;;;9666712;30;20038;-66
2022/12/06 19:31:46;;;;;;;3.22;1.52;;;8.20;99.90;;;;;;9668676;30;20034;-62
2022/12/06 19:36:52;;;;;;;3.05;1.55;;;8.20;99.90;;;;;;9668353;30;20073;-61
2022/12/06 19:47:13;;;;;;;3.20;1.52;;;8.10;99.90;;;;;;9668066;30;20046;-61
2022/12/06 19:52:13;;;;;;;4.15;1.40;;;8.20;99.90;;;;;;9670564;30;20484;-61
2022/12/06 19:57:14;;;;;;;3.05;1.60;;;8.20;99.90;;;;;;9664171;30;20138;-61
2022/12/06 20:02:15;;;;;;;2.65;1.45;;;8.20;99.90;;;;;;9669400;30;20501;-61
2022/12/06 20:07:15;;;;;;;2.55;1.60;;;8.20;99.90;;;;;;9668310;30;20038;-61
2022/12/06 20:12:16;;;;;;;2.03;1.55;;;8.20;99.90;;;;;;9664866;30;20042;-61
2022/12/06 20:17:19;;;;;;;3.90;1.63;;;8.20;99.90;;;;;;9668843;30;20129;-61
2022/12/06 20:22:21;;;;;;;3.38;1.40;;;8.20;99.90;;;;;;9666678;30;20057;-61
2022/12/06 20:27:49;;;;;;;2.45;1.40;;;8.20;99.90;;;;;;9667418;30;20497;-61
2022/12/06 20:32:43;;;;;;;3.00;1.40;;;8.20;99.90;;;;;;9671735;30;20038;-61
2022/12/06 20:37:43;;;;;;;2.75;1.38;;;7.90;99.90;;;;;;9673471;30;20042;-60
2022/12/06 20:42:47;;;;;;;2.20;1.42;;;8.20;99.90;;;;;;9676520;30;20038;-60
2022/12/06 20:47:50;;;;;;;2.15;1.38;;;8.20;99.90;;;;;;9676550;30;20034;-61
2022/12/06 20:52:51;;;;;;;2.63;1.45;;;8.20;99.90;;;;;;9666773;30;20109;-61
2022/12/06 20:57:52;;;;;;;3.58;1.70;;;8.20;99.90;;;;;;9653315;30;20034;-61
2022/12/06 21:02:52;;;;;;;2.35;1.67;;;8.90;99.90;;;;;;9674154;30;20125;-61
2022/12/06 21:07:53;;;;;;;2.22;1.60;;;8.20;99.90;;;;;;9668020;30;20058;-61
2022/12/06 21:12:54;;;;;;;1.98;1.48;;;8.20;99.90;;;;;;9664160;30;20038;-61
2022/12/06 21:17:55;;;;;;;3.03;1.83;;;8.10;99.90;;;;;;9660569;30;20050;-61
2022/12/06 21:22:55;;;;;;;2.60;1.80;;;8.20;99.90;;;;;;9669399;30;20405;-61
2022/12/06 21:27:57;;;;;;;1.98;1.42;;;8.20;99.90;;;;;;9673356;30;20046;-62
2022/12/06 21:32:58;;;;;;;2.22;1.50;;;8.20;99.90;;;;;;9653841;30;20448;-65
2022/12/06 21:37:58;;;;;;;2.78;1.70;;;8.10;99.90;;;;;;9676157;30;20033;-61
2022/12/06 21:42:59;;;;;;;4.05;1.50;;;8.10;99.90;;;;;;9673392;30;20034;-61
2022/12/06 21:48:00;;;;;;;2.85;1.50;;;8.10;99.90;;;;;;9676835;30;20034;-61
2022/12/06 21:53:00;;;;;;;3.10;1.77;;;8.10;99.90;;;;;;9674459;30;20455;-61
2022/12/06 21:58:01;;;;;;;3.90;1.80;;;8.30;99.90;;;;;;9677304;30;20105;-61
2022/12/06 22:03:02;;;;;;;3.05;1.70;;;8.10;99.90;;;;;;9675586;30;20042;-61
2022/12/06 22:08:03;;;;;;;3.60;2.08;;;8.10;99.90;;;;;;9675467;30;20049;-61
2022/12/06 22:13:03;;;;;;;5.50;1.80;;;8.10;99.90;;;;;;9679996;30;20049;-60
2022/12/06 22:18:04;;;;;;;3.28;1.63;;;8.10;99.90;;;;;;9675527;30;20036;-61
2022/12/06 22:23:05;;;;;;;2.45;1.50;;;8.10;99.90;;;;;;9670238;30;20058;-61
2022/12/06 22:28:05;;;;;;;4.22;1.60;;;8.10;99.90;;;;;;9670180;30;20038;-61
2022/12/06 22:33:06;;;;;;;3.08;1.80;;;8.10;99.90;;;;;;9672279;30;20050;-60
2022/12/06 22:38:12;;;;;;;3.15;1.50;;;8.10;99.90;;;;;;9670444;30;20071;-64
2022/12/06 22:43:12;;;;;;;4.88;1.40;;;8.10;99.90;;;;;;9659318;30;20059;-60
2022/12/06 22:48:13;;;;;;;3.08;1.45;;;8.00;99.90;;;;;;9673239;30;20486;-61
2022/12/06 22:53:19;;;;;;;2.10;1.20;;;8.00;99.90;;;;;;9671832;30;20042;-61
2022/12/06 22:58:20;;;;;;;2.63;1.10;;;8.10;99.90;;;;;;9656119;30;20034;-61
2022/12/06 23:03:21;;;;;;;2.33;1.20;;;8.00;99.90;;;;;;9673267;30;20098;-61
2022/12/06 23:08:22;;;;;;;3.55;1.58;;;8.00;99.90;;;;;;9674562;30;20038;-61
2022/12/06 23:13:22;;;;;;;4.28;1.30;;;8.00;99.90;;;;;;9676168;30;20434;-61
2022/12/06 23:18:24;;;;;;;1.45;0.98;;;8.00;99.90;;;;;;9679795;30;20044;-60
2022/12/06 23:23:24;;;;;;;2.22;1.40;;;8.00;99.90;;;;;;9678623;30;20368;-60
2022/12/06 23:28:25;;;;;;;2.08;1.30;;;8.00;99.90;;;;;;9665382;30;20022;-61
2022/12/06 23:33:26;;;;;;;2.15;1.00;;;8.00;99.90;;;;;;9679968;30;20528;-62
2022/12/06 23:38:26;;;;;;;3.35;1.00;;;8.00;99.90;;;;;;9675392;30;20045;-60
2022/12/06 23:43:27;;;;;;;1.58;0.85;;;7.90;99.90;;;;;;9675431;30;20034;-60
2022/12/06 23:48:29;;;;;;;3.05;0.80;;;7.90;99.90;;;;;;9675289;30;20148;-61
2022/12/06 23:53:31;;;;;;;3.80;0.90;;;8.00;99.90;;;;;;9675193;30;20136;-61
2022/12/06 23:58:32;;;;;;;1.83;1.17;;;8.10;99.90;;;;;;9675298;30;20559;-62
